Terminal Aerodrome Forecast
Issued by NWS

Home | Current Version | Previous Version | Text Only | Print | Product List | Glossary On
Versions: 1 2 3 4 5 6 7 8 9 10 11 12 13 14 15 16 17 18 19 20
000
FTAK31 PAFA 272320
TAFASC
TAF
PASC 272320Z 2800/2824 06008KT P6SM OVC012
      TEMPO 2802/2805 08015KT P6SM BKN015
     FM280500 08015KT P6SM BKN015
     FM280700 08015KT P6SM SCT007 OVC015
     FM280900 08017KT 1SM BR OVC005=

USA.gov is the U.S. government's official web portal to all federal, state and local government web resources and services.